sensor_id;sensor_type;location;lat;lon;timestamp;temperature;humidity
24682;DHT22;12802;53.390;-2.328;2023-03-26T00:01:04;8.20;99.90
24682;DHT22;12802;53.390;-2.328;2023-03-26T00:03:31;8.10;99.90
24682;DHT22;12802;53.390;-2.328;2023-03-26T00:06:03;8.10;99.90
24682;DHT22;12802;53.390;-2.328;2023-03-26T00:08:35;8.10;99.90
24682;DHT22;12802;53.390;-2.328;2023-03-26T00:11:03;8.10;99.90
24682;DHT22;12802;53.390;-2.328;2023-03-26T00:13:30;8.00;99.90
24682;DHT22;12802;53.390;-2.328;2023-03-26T00:15:56;8.00;99.90
24682;DHT22;12802;53.390;-2.328;2023-03-26T00:18:22;7.90;99.90
24682;DHT22;12802;53.390;-2.328;2023-03-26T00:21:04;7.80;99.90
24682;DHT22;12802;53.390;-2.328;2023-03-26T00:23:31;7.80;99.90
24682;DHT22;12802;53.390;-2.328;2023-03-26T00:25:57;7.70;99.90
24682;DHT22;12802;53.390;-2.328;2023-03-26T00:28:23;7.70;99.90
24682;DHT22;12802;53.390;-2.328;2023-03-26T00:31:02;7.60;99.90
24682;DHT22;12802;53.390;-2.328;2023-03-26T00:33:31;7.60;99.90
24682;DHT22;12802;53.390;-2.328;2023-03-26T00:35:58;7.60;99.90
24682;DHT22;12802;53.390;-2.328;2023-03-26T00:38:27;7.60;99.90
24682;DHT22;12802;53.390;-2.328;2023-03-26T00:40:53;7.50;99.90
24682;DHT22;12802;53.390;-2.328;2023-03-26T00:43:21;7.50;99.90
24682;DHT22;12802;53.390;-2.328;2023-03-26T00:45:50;7.60;99.90
24682;DHT22;12802;53.390;-2.328;2023-03-26T00:48:17;7.60;99.90
24682;DHT22;12802;53.390;-2.328;2023-03-26T00:50:44;7.60;99.90
24682;DHT22;12802;53.390;-2.328;2023-03-26T00:53:11;7.60;99.90
24682;DHT22;12802;53.390;-2.328;2023-03-26T00:55:42;7.70;99.90
24682;DHT22;12802;53.390;-2.328;2023-03-26T00:58:10;7.70;99.90
24682;DHT22;12802;53.390;-2.328;2023-03-26T01:00:56;7.70;99.90
24682;DHT22;12802;53.390;-2.328;2023-03-26T01:03:23;7.80;99.90
24682;DHT22;12802;53.390;-2.328;2023-03-26T01:08:48;7.80;99.90
24682;DHT22;12802;53.390;-2.328;2023-03-26T01:11:23;7.80;99.90
24682;DHT22;12802;53.390;-2.328;2023-03-26T01:13:54;7.70;99.90
24682;DHT22;12802;53.390;-2.328;2023-03-26T01:18:52;7.70;99.90
24682;DHT22;12802;53.390;-2.328;2023-03-26T01:21:23;7.70;99.90
24682;DHT22;12802;53.390;-2.328;2023-03-26T01:24:05;7.70;99.90
24682;DHT22;12802;53.390;-2.328;2023-03-26T01:26:52;7.80;99.90
24682;DHT22;12802;53.390;-2.328;2023-03-26T01:32:34;7.80;99.90
24682;DHT22;12802;53.390;-2.328;2023-03-26T01:35:06;7.70;99.90
24682;DHT22;12802;53.390;-2.328;2023-03-26T01:40:22;7.60;99.90
24682;DHT22;12802;53.390;-2.328;2023-03-26T01:43:10;7.60;99.90
24682;DHT22;12802;53.390;-2.328;2023-03-26T01:45:40;7.60;99.90
24682;DHT22;12802;53.390;-2.328;2023-03-26T01:48:07;7.60;99.90
24682;DHT22;12802;53.390;-2.328;2023-03-26T01:50:33;7.60;99.90
24682;DHT22;12802;53.390;-2.328;2023-03-26T01:52:59;7.60;99.90
24682;DHT22;12802;53.390;-2.328;2023-03-26T01:55:40;7.60;99.90
24682;DHT22;12802;53.390;-2.328;2023-03-26T02:01:40;7.50;99.90
24682;DHT22;12802;53.390;-2.328;2023-03-26T02:04:25;7.40;99.90
24682;DHT22;12802;53.390;-2.328;2023-03-26T02:07:16;7.40;99.90
24682;DHT22;12802;53.390;-2.328;2023-03-26T02:09:52;7.40;99.90
24682;DHT22;12802;53.390;-2.328;2023-03-26T02:12:21;7.30;99.90
24682;DHT22;12802;53.390;-2.328;2023-03-26T02:14:48;7.30;99.90
24682;DHT22;12802;53.390;-2.328;2023-03-26T02:17:14;7.30;99.90
24682;DHT22;12802;53.390;-2.328;2023-03-26T02:19:41;7.20;99.90
24682;DHT22;12802;53.390;-2.328;2023-03-26T02:22:08;7.20;99.90
24682;DHT22;12802;53.390;-2.328;2023-03-26T02:24:43;7.20;99.90
24682;DHT22;12802;53.390;-2.328;2023-03-26T02:27:09;7.20;99.90
24682;DHT22;12802;53.390;-2.328;2023-03-26T02:29:38;7.20;99.90
24682;DHT22;12802;53.390;-2.328;2023-03-26T02:32:07;7.20;99.90
24682;DHT22;12802;53.390;-2.328;2023-03-26T02:34:33;7.20;99.90
24682;DHT22;12802;53.390;-2.328;2023-03-26T02:36:59;7.20;99.90
24682;DHT22;12802;53.390;-2.328;2023-03-26T02:39:25;7.20;99.90
24682;DHT22;12802;53.390;-2.328;2023-03-26T02:41:58;7.20;99.90
24682;DHT22;12802;53.390;-2.328;2023-03-26T02:44:24;7.20;99.90
24682;DHT22;12802;53.390;-2.328;2023-03-26T02:47:14;7.20;99.90
24682;DHT22;12802;53.390;-2.328;2023-03-26T02:49:52;7.20;99.90
24682;DHT22;12802;53.390;-2.328;2023-03-26T02:52:34;7.20;99.90
24682;DHT22;12802;53.390;-2.328;2023-03-26T02:55:02;7.20;99.90
24682;DHT22;12802;53.390;-2.328;2023-03-26T02:57:28;7.10;99.90
24682;DHT22;12802;53.390;-2.328;2023-03-26T02:59:59;7.20;99.90
24682;DHT22;12802;53.390;-2.328;2023-03-26T03:02:37;7.20;99.90
24682;DHT22;12802;53.390;-2.328;2023-03-26T03:05:35;7.20;99.90
24682;DHT22;12802;53.390;-2.328;2023-03-26T03:08:25;7.20;99.90
24682;DHT22;12802;53.390;-2.328;2023-03-26T03:11:11;7.10;99.90
24682;DHT22;12802;53.390;-2.328;2023-03-26T03:13:43;7.10;99.90
24682;DHT22;12802;53.390;-2.328;2023-03-26T03:16:10;7.10;99.90
24682;DHT22;12802;53.390;-2.328;2023-03-26T03:18:36;7.10;99.90
24682;DHT22;12802;53.390;-2.328;2023-03-26T03:21:03;7.20;99.90
24682;DHT22;12802;53.390;-2.328;2023-03-26T03:23:30;7.20;99.90
24682;DHT22;12802;53.390;-2.328;2023-03-26T03:26:14;7.20;99.90
24682;DHT22;12802;53.390;-2.328;2023-03-26T03:28:42;7.20;99.90
24682;DHT22;12802;53.390;-2.328;2023-03-26T03:31:11;7.20;99.90
24682;DHT22;12802;53.390;-2.328;2023-03-26T03:33:37;7.20;99.90
24682;DHT22;12802;53.390;-2.328;2023-03-26T03:36:04;7.20;99.90
24682;DHT22;12802;53.390;-2.328;2023-03-26T03:38:37;7.20;99.90
24682;DHT22;12802;53.390;-2.328;2023-03-26T03:41:03;7.20;99.90
24682;DHT22;12802;53.390;-2.328;2023-03-26T03:43:30;7.20;99.90
24682;DHT22;12802;53.390;-2.328;2023-03-26T03:46:05;7.20;99.90
24682;DHT22;12802;53.390;-2.328;2023-03-26T03:48:35;7.20;99.90
24682;DHT22;12802;53.390;-2.328;2023-03-26T03:51:05;7.20;99.90
24682;DHT22;12802;53.390;-2.328;2023-03-26T03:53:52;7.20;99.90
24682;DHT22;12802;53.390;-2.328;2023-03-26T03:56:43;7.20;99.90
24682;DHT22;12802;53.390;-2.328;2023-03-26T03:59:13;7.20;99.90
24682;DHT22;12802;53.390;-2.328;2023-03-26T04:01:41;7.20;99.90
24682;DHT22;12802;53.390;-2.328;2023-03-26T04:04:24;7.20;99.90
24682;DHT22;12802;53.390;-2.328;2023-03-26T04:06:59;7.20;99.90
24682;DHT22;12802;53.390;-2.328;2023-03-26T04:09:31;7.10;99.90
24682;DHT22;12802;53.390;-2.328;2023-03-26T04:12:01;7.10;99.90
24682;DHT22;12802;53.390;-2.328;2023-03-26T04:14:36;7.10;99.90
24682;DHT22;12802;53.390;-2.328;2023-03-26T04:17:06;7.10;99.90
24682;DHT22;12802;53.390;-2.328;2023-03-26T04:19:35;7.10;99.90
24682;DHT22;12802;53.390;-2.328;2023-03-26T04:22:04;7.10;99.90
24682;DHT22;12802;53.390;-2.328;2023-03-26T04:24:35;7.00;99.90
24682;DHT22;12802;53.390;-2.328;2023-03-26T04:27:29;7.00;99.90
24682;DHT22;12802;53.390;-2.328;2023-03-26T04:30:28;7.00;99.90
24682;DHT22;12802;53.390;-2.328;2023-03-26T04:33:04;6.90;99.90
24682;DHT22;12802;53.390;-2.328;2023-03-26T04:35:34;6.90;99.90
24682;DHT22;12802;53.390;-2.328;2023-03-26T04:38:02;6.90;99.90
24682;DHT22;12802;53.390;-2.328;2023-03-26T04:40:34;6.90;99.90
24682;DHT22;12802;53.390;-2.328;2023-03-26T04:43:15;6.90;99.90
24682;DHT22;12802;53.390;-2.328;2023-03-26T04:46:01;6.90;99.90
24682;DHT22;12802;53.390;-2.328;2023-03-26T04:48:29;6.90;99.90
24682;DHT22;12802;53.390;-2.328;2023-03-26T04:50:56;6.90;99.90
24682;DHT22;12802;53.390;-2.328;2023-03-26T04:53:23;6.90;99.90
24682;DHT22;12802;53.390;-2.328;2023-03-26T04:56:10;6.90;99.90
24682;DHT22;12802;53.390;-2.328;2023-03-26T04:59:04;6.90;99.90
24682;DHT22;12802;53.390;-2.328;2023-03-26T05:01:34;6.90;99.90
24682;DHT22;12802;53.390;-2.328;2023-03-26T05:04:02;6.90;99.90
24682;DHT22;12802;53.390;-2.328;2023-03-26T05:06:28;6.80;99.90
24682;DHT22;12802;53.390;-2.328;2023-03-26T05:08:55;6.80;99.90
24682;DHT22;12802;53.390;-2.328;2023-03-26T05:11:41;6.80;99.90
24682;DHT22;12802;53.390;-2.328;2023-03-26T05:14:07;6.80;99.90
24682;DHT22;12802;53.390;-2.328;2023-03-26T05:16:34;6.80;99.90
24682;DHT22;12802;53.390;-2.328;2023-03-26T05:19:05;6.80;99.90
24682;DHT22;12802;53.390;-2.328;2023-03-26T05:21:33;6.80;99.90
24682;DHT22;12802;53.390;-2.328;2023-03-26T05:24:00;6.80;99.90
24682;DHT22;12802;53.390;-2.328;2023-03-26T05:26:26;6.80;99.90
24682;DHT22;12802;53.390;-2.328;2023-03-26T05:28:54;6.80;99.90
24682;DHT22;12802;53.390;-2.328;2023-03-26T05:31:41;6.70;99.90
24682;DHT22;12802;53.390;-2.328;2023-03-26T05:34:09;6.70;99.90
24682;DHT22;12802;53.390;-2.328;2023-03-26T05:36:35;6.70;99.90
24682;DHT22;12802;53.390;-2.328;2023-03-26T05:39:19;6.70;99.90
24682;DHT22;12802;53.390;-2.328;2023-03-26T05:42:10;6.70;99.90
24682;DHT22;12802;53.390;-2.328;2023-03-26T05:44:54;6.70;99.90
24682;DHT22;12802;53.390;-2.328;2023-03-26T05:47:25;6.70;99.90
24682;DHT22;12802;53.390;-2.328;2023-03-26T05:49:51;6.70;99.90
24682;DHT22;12802;53.390;-2.328;2023-03-26T05:52:17;6.60;99.90
24682;DHT22;12802;53.390;-2.328;2023-03-26T05:55:02;6.60;99.90
24682;DHT22;12802;53.390;-2.328;2023-03-26T05:57:47;6.60;99.90
24682;DHT22;12802;53.390;-2.328;2023-03-26T06:00:31;6.70;99.90
24682;DHT22;12802;53.390;-2.328;2023-03-26T06:02:59;6.70;99.90
24682;DHT22;12802;53.390;-2.328;2023-03-26T06:05:25;6.60;99.90
24682;DHT22;12802;53.390;-2.328;2023-03-26T06:08:07;6.60;99.90
24682;DHT22;12802;53.390;-2.328;2023-03-26T06:10:37;6.60;99.90
24682;DHT22;12802;53.390;-2.328;2023-03-26T06:13:04;6.60;99.90
24682;DHT22;12802;53.390;-2.328;2023-03-26T06:15:30;6.60;99.90
24682;DHT22;12802;53.390;-2.328;2023-03-26T06:18:00;6.60;99.90
24682;DHT22;12802;53.390;-2.328;2023-03-26T06:20:35;6.60;99.90
24682;DHT22;12802;53.390;-2.328;2023-03-26T06:23:18;6.60;99.90
24682;DHT22;12802;53.390;-2.328;2023-03-26T06:26:05;6.60;99.90
24682;DHT22;12802;53.390;-2.328;2023-03-26T06:28:57;6.60;99.90
24682;DHT22;12802;53.390;-2.328;2023-03-26T06:31:49;6.70;99.90
24682;DHT22;12802;53.390;-2.328;2023-03-26T06:34:31;6.70;99.90
24682;DHT22;12802;53.390;-2.328;2023-03-26T06:36:57;6.70;99.90
24682;DHT22;12802;53.390;-2.328;2023-03-26T06:39:22;6.70;99.90
24682;DHT22;12802;53.390;-2.328;2023-03-26T06:42:11;6.70;99.90
24682;DHT22;12802;53.390;-2.328;2023-03-26T06:44:55;6.70;99.90
24682;DHT22;12802;53.390;-2.328;2023-03-26T06:47:33;6.80;99.90
24682;DHT22;12802;53.390;-2.328;2023-03-26T06:50:18;6.90;99.90
24682;DHT22;12802;53.390;-2.328;2023-03-26T06:53:02;6.90;99.90
24682;DHT22;12802;53.390;-2.328;2023-03-26T06:55:55;6.90;99.90
24682;DHT22;12802;53.390;-2.328;2023-03-26T06:58:39;6.90;99.90
24682;DHT22;12802;53.390;-2.328;2023-03-26T07:01:31;6.90;99.90
24682;DHT22;12802;53.390;-2.328;2023-03-26T07:04:19;6.90;99.90
24682;DHT22;12802;53.390;-2.328;2023-03-26T07:07:04;6.90;99.90
24682;DHT22;12802;53.390;-2.328;2023-03-26T07:09:49;6.90;99.90
24682;DHT22;12802;53.390;-2.328;2023-03-26T07:12:34;6.90;99.90
24682;DHT22;12802;53.390;-2.328;2023-03-26T07:15:18;6.90;99.90
24682;DHT22;12802;53.390;-2.328;2023-03-26T07:17:53;6.90;99.90
24682;DHT22;12802;53.390;-2.328;2023-03-26T07:20:23;7.00;99.90
24682;DHT22;12802;53.390;-2.328;2023-03-26T07:22:49;7.00;99.90
24682;DHT22;12802;53.390;-2.328;2023-03-26T07:25:29;7.00;99.90
24682;DHT22;12802;53.390;-2.328;2023-03-26T07:28:46;7.10;99.90
24682;DHT22;12802;53.390;-2.328;2023-03-26T07:35:16;7.20;99.90
24682;DHT22;12802;53.390;-2.328;2023-03-26T07:41:52;7.10;99.90
24682;DHT22;12802;53.390;-2.328;2023-03-26T07:45:19;7.20;99.90
24682;DHT22;12802;53.390;-2.328;2023-03-26T07:48:20;7.10;99.90
24682;DHT22;12802;53.390;-2.328;2023-03-26T07:51:08;7.20;99.90
24682;DHT22;12802;53.390;-2.328;2023-03-26T07:53:57;7.30;99.90
24682;DHT22;12802;53.390;-2.328;2023-03-26T07:57:04;7.30;99.90
24682;DHT22;12802;53.390;-2.328;2023-03-26T08:08:54;7.50;99.90
24682;DHT22;12802;53.390;-2.328;2023-03-26T08:21:15;7.30;99.90
24682;DHT22;12802;53.390;-2.328;2023-03-26T08:26:38;7.40;99.90
24682;DHT22;12802;53.390;-2.328;2023-03-26T08:31:36;7.50;99.90
24682;DHT22;12802;53.390;-2.328;2023-03-26T08:34:04;7.60;99.90
24682;DHT22;12802;53.390;-2.328;2023-03-26T08:36:30;7.70;99.90
24682;DHT22;12802;53.390;-2.328;2023-03-26T08:38:59;7.90;99.90
24682;DHT22;12802;53.390;-2.328;2023-03-26T09:16:21;8.30;99.90
24682;DHT22;12802;53.390;-2.328;2023-03-26T09:22:24;8.10;99.90
24682;DHT22;12802;53.390;-2.328;2023-03-26T09:24:34;8.20;99.90
24682;DHT22;12802;53.390;-2.328;2023-03-26T09:27:13;8.20;99.90
24682;DHT22;12802;53.390;-2.328;2023-03-26T09:40:18;8.30;99.90
24682;DHT22;12802;53.390;-2.328;2023-03-26T09:42:55;8.30;99.90
24682;DHT22;12802;53.390;-2.328;2023-03-26T09:48:21;8.10;99.90
24682;DHT22;12802;53.390;-2.328;2023-03-26T10:10:18;8.90;99.90
24682;DHT22;12802;53.390;-2.328;2023-03-26T10:12:51;9.40;99.90
24682;DHT22;12802;53.390;-2.328;2023-03-26T10:21:05;11.20;99.90
24682;DHT22;12802;53.390;-2.328;2023-03-26T10:32:35;11.30;99.90
24682;DHT22;12802;53.390;-2.328;2023-03-26T10:38:23;11.30;99.90
24682;DHT22;12802;53.390;-2.328;2023-03-26T10:49:21;11.40;99.90
24682;DHT22;12802;53.390;-2.328;2023-03-26T10:52:03;11.50;99.90
24682;DHT22;12802;53.390;-2.328;2023-03-26T10:57:42;11.10;99.90
24682;DHT22;12802;53.390;-2.328;2023-03-26T11:00:20;11.00;99.90
24682;DHT22;12802;53.390;-2.328;2023-03-26T11:08:13;10.30;99.90
24682;DHT22;12802;53.390;-2.328;2023-03-26T11:10:55;10.30;99.90
24682;DHT22;12802;53.390;-2.328;2023-03-26T11:13:57;10.50;99.90
24682;DHT22;12802;53.390;-2.328;2023-03-26T11:19:19;11.30;99.90
24682;DHT22;12802;53.390;-2.328;2023-03-26T11:25:22;11.30;99.90
24682;DHT22;12802;53.390;-2.328;2023-03-26T11:33:23;10.90;99.90
24682;DHT22;12802;53.390;-2.328;2023-03-26T11:35:52;10.90;99.90
24682;DHT22;12802;53.390;-2.328;2023-03-26T11:41:09;10.90;99.90
24682;DHT22;12802;53.390;-2.328;2023-03-26T11:46:51;10.50;99.90
24682;DHT22;12802;53.390;-2.328;2023-03-26T11:49:20;10.70;99.90
24682;DHT22;12802;53.390;-2.328;2023-03-26T11:51:47;10.70;99.90
24682;DHT22;12802;53.390;-2.328;2023-03-26T11:54:14;10.70;99.90
24682;DHT22;12802;53.390;-2.328;2023-03-26T11:57:01;10.80;99.90
24682;DHT22;12802;53.390;-2.328;2023-03-26T11:59:44;10.90;99.90
24682;DHT22;12802;53.390;-2.328;2023-03-26T12:04:44;10.90;99.90
24682;DHT22;12802;53.390;-2.328;2023-03-26T12:07:31;10.90;99.90
24682;DHT22;12802;53.390;-2.328;2023-03-26T12:10:05;11.00;99.90
24682;DHT22;12802;53.390;-2.328;2023-03-26T12:12:37;11.00;99.90
24682;DHT22;12802;53.390;-2.328;2023-03-26T12:15:06;10.90;99.90
24682;DHT22;12802;53.390;-2.328;2023-03-26T12:17:37;11.00;99.90
24682;DHT22;12802;53.390;-2.328;2023-03-26T12:22:59;10.90;99.90
24682;DHT22;12802;53.390;-2.328;2023-03-26T12:25:34;10.80;99.90
24682;DHT22;12802;53.390;-2.328;2023-03-26T12:28:19;10.80;99.90
24682;DHT22;12802;53.390;-2.328;2023-03-26T12:30:59;10.80;99.90
24682;DHT22;12802;53.390;-2.328;2023-03-26T12:33:29;10.90;99.90
24682;DHT22;12802;53.390;-2.328;2023-03-26T12:36:14;10.90;99.90
24682;DHT22;12802;53.390;-2.328;2023-03-26T12:38:41;10.90;99.90
24682;DHT22;12802;53.390;-2.328;2023-03-26T12:41:15;11.00;99.90
24682;DHT22;12802;53.390;-2.328;2023-03-26T12:46:31;11.00;99.90
24682;DHT22;12802;53.390;-2.328;2023-03-26T12:49:06;11.00;99.90
24682;DHT22;12802;53.390;-2.328;2023-03-26T12:51:53;10.90;99.90
24682;DHT22;12802;53.390;-2.328;2023-03-26T13:00:14;11.10;99.90
24682;DHT22;12802;53.390;-2.328;2023-03-26T13:05:55;11.60;99.90
24682;DHT22;12802;53.390;-2.328;2023-03-26T13:27:30;11.10;99.90
24682;DHT22;12802;53.390;-2.328;2023-03-26T13:30:51;11.10;99.90
24682;DHT22;12802;53.390;-2.328;2023-03-26T13:38:34;11.00;99.90
24682;DHT22;12802;53.390;-2.328;2023-03-26T13:46:33;11.20;99.90
24682;DHT22;12802;53.390;-2.328;2023-03-26T13:49:14;11.20;99.90
24682;DHT22;12802;53.390;-2.328;2023-03-26T13:54:15;11.20;99.90
24682;DHT22;12802;53.390;-2.328;2023-03-26T13:56:53;11.10;99.90
24682;DHT22;12802;53.390;-2.328;2023-03-26T13:59:37;11.20;99.90
24682;DHT22;12802;53.390;-2.328;2023-03-26T14:02:10;11.20;99.90
24682;DHT22;12802;53.390;-2.328;2023-03-26T14:04:42;11.20;99.90
24682;DHT22;12802;53.390;-2.328;2023-03-26T14:07:21;11.20;99.90
24682;DHT22;12802;53.390;-2.328;2023-03-26T14:10:12;11.00;99.90
24682;DHT22;12802;53.390;-2.328;2023-03-26T14:13:03;10.90;99.90
24682;DHT22;12802;53.390;-2.328;2023-03-26T14:15:56;10.80;99.90
24682;DHT22;12802;53.390;-2.328;2023-03-26T14:18:37;10.60;99.90
24682;DHT22;12802;53.390;-2.328;2023-03-26T14:21:29;10.50;99.90
24682;DHT22;12802;53.390;-2.328;2023-03-26T14:49:42;10.10;99.90
24682;DHT22;12802;53.390;-2.328;2023-03-26T14:52:38;10.10;99.90
24682;DHT22;12802;53.390;-2.328;2023-03-26T14:55:39;10.10;99.90
24682;DHT22;12802;53.390;-2.328;2023-03-26T15:01:26;10.10;99.90
24682;DHT22;12802;53.390;-2.328;2023-03-26T16:04:54;9.30;99.90
24682;DHT22;12802;53.390;-2.328;2023-03-26T16:10:11;9.20;99.90
24682;DHT22;12802;53.390;-2.328;2023-03-26T16:15:38;9.20;99.90
24682;DHT22;12802;53.390;-2.328;2023-03-26T16:20:52;9.10;99.90
24682;DHT22;12802;53.390;-2.328;2023-03-26T16:23:23;9.00;99.90
24682;DHT22;12802;53.390;-2.328;2023-03-26T16:25:57;8.90;99.90
24682;DHT22;12802;53.390;-2.328;2023-03-26T16:28:36;9.00;99.90
24682;DHT22;12802;53.390;-2.328;2023-03-26T16:31:22;9.00;99.90
24682;DHT22;12802;53.390;-2.328;2023-03-26T16:39:10;8.70;99.90
24682;DHT22;12802;53.390;-2.328;2023-03-26T16:44:41;8.70;99.90
24682;DHT22;12802;53.390;-2.328;2023-03-26T16:47:34;8.80;99.90
24682;DHT22;12802;53.390;-2.328;2023-03-26T16:55:46;8.90;99.90
24682;DHT22;12802;53.390;-2.328;2023-03-26T16:58:53;8.90;99.90
24682;DHT22;12802;53.390;-2.328;2023-03-26T17:01:39;8.90;99.90
24682;DHT22;12802;53.390;-2.328;2023-03-26T17:04:16;8.90;99.90
24682;DHT22;12802;53.390;-2.328;2023-03-26T17:12:34;8.90;99.90
24682;DHT22;12802;53.390;-2.328;2023-03-26T17:15:22;8.90;99.90
24682;DHT22;12802;53.390;-2.328;2023-03-26T17:18:15;9.00;99.90
24682;DHT22;12802;53.390;-2.328;2023-03-26T17:37:48;8.90;99.90
24682;DHT22;12802;53.390;-2.328;2023-03-26T17:45:19;8.90;99.90
24682;DHT22;12802;53.390;-2.328;2023-03-26T17:47:55;8.80;99.90
24682;DHT22;12802;53.390;-2.328;2023-03-26T17:50:30;8.80;99.90
24682;DHT22;12802;53.390;-2.328;2023-03-26T17:53:05;8.90;99.90
24682;DHT22;12802;53.390;-2.328;2023-03-26T17:55:37;8.90;99.90
24682;DHT22;12802;53.390;-2.328;2023-03-26T17:58:13;8.90;99.90
24682;DHT22;12802;53.390;-2.328;2023-03-26T18:00:49;8.90;99.90
24682;DHT22;12802;53.390;-2.328;2023-03-26T18:03:26;8.90;99.90
24682;DHT22;12802;53.390;-2.328;2023-03-26T18:06:04;8.90;99.90
24682;DHT22;12802;53.390;-2.328;2023-03-26T18:08:52;8.80;99.90
24682;DHT22;12802;53.390;-2.328;2023-03-26T18:11:31;8.70;99.90
24682;DHT22;12802;53.390;-2.328;2023-03-26T18:14:18;8.70;99.90
24682;DHT22;12802;53.390;-2.328;2023-03-26T18:16:58;8.70;99.90
24682;DHT22;12802;53.390;-2.328;2023-03-26T18:19:25;8.60;99.90
24682;DHT22;12802;53.390;-2.328;2023-03-26T18:21:56;8.50;99.90
24682;DHT22;12802;53.390;-2.328;2023-03-26T18:24:31;8.40;99.90
24682;DHT22;12802;53.390;-2.328;2023-03-26T18:27:10;8.40;99.90
24682;DHT22;12802;53.390;-2.328;2023-03-26T18:29:45;8.40;99.90
24682;DHT22;12802;53.390;-2.328;2023-03-26T18:32:24;8.50;99.90
24682;DHT22;12802;53.390;-2.328;2023-03-26T18:34:59;8.50;99.90
24682;DHT22;12802;53.390;-2.328;2023-03-26T18:37:32;8.50;99.90
24682;DHT22;12802;53.390;-2.328;2023-03-26T18:42:29;8.30;99.90
24682;DHT22;12802;53.390;-2.328;2023-03-26T18:44:56;8.30;99.90
24682;DHT22;12802;53.390;-2.328;2023-03-26T18:47:23;8.20;99.90
24682;DHT22;12802;53.390;-2.328;2023-03-26T18:49:53;8.10;99.90
24682;DHT22;12802;53.390;-2.328;2023-03-26T18:52:19;8.20;99.90
24682;DHT22;12802;53.390;-2.328;2023-03-26T18:54:48;8.10;99.90
24682;DHT22;12802;53.390;-2.328;2023-03-26T18:57:27;8.20;99.90
24682;DHT22;12802;53.390;-2.328;2023-03-26T19:00:01;8.10;99.90
24682;DHT22;12802;53.390;-2.328;2023-03-26T19:02:33;8.20;99.90
24682;DHT22;12802;53.390;-2.328;2023-03-26T19:05:00;8.10;99.90
24682;DHT22;12802;53.390;-2.328;2023-03-26T19:07:28;8.10;99.90
24682;DHT22;12802;53.390;-2.328;2023-03-26T19:09:55;8.20;99.90
24682;DHT22;12802;53.390;-2.328;2023-03-26T19:12:31;8.00;99.90
24682;DHT22;12802;53.390;-2.328;2023-03-26T19:15:05;8.10;99.90
24682;DHT22;12802;53.390;-2.328;2023-03-26T19:17:40;8.00;99.90
24682;DHT22;12802;53.390;-2.328;2023-03-26T19:20:16;8.10;99.90
24682;DHT22;12802;53.390;-2.328;2023-03-26T19:22:44;8.10;99.90
24682;DHT22;12802;53.390;-2.328;2023-03-26T19:28:19;8.20;99.90
24682;DHT22;12802;53.390;-2.328;2023-03-26T19:30:45;8.10;99.90
24682;DHT22;12802;53.390;-2.328;2023-03-26T19:33:19;8.20;99.90
24682;DHT22;12802;53.390;-2.328;2023-03-26T19:36:04;8.20;99.90
24682;DHT22;12802;53.390;-2.328;2023-03-26T19:38:48;8.20;99.90
24682;DHT22;12802;53.390;-2.328;2023-03-26T19:41:25;8.20;99.90
24682;DHT22;12802;53.390;-2.328;2023-03-26T19:43:58;8.10;99.90
24682;DHT22;12802;53.390;-2.328;2023-03-26T19:46:26;8.10;99.90
24682;DHT22;12802;53.390;-2.328;2023-03-26T19:48:54;8.10;99.90
24682;DHT22;12802;53.390;-2.328;2023-03-26T19:51:32;8.10;99.90
24682;DHT22;12802;53.390;-2.328;2023-03-26T19:54:02;8.00;99.90
24682;DHT22;12802;53.390;-2.328;2023-03-26T19:56:28;8.00;99.90
24682;DHT22;12802;53.390;-2.328;2023-03-26T19:58:56;8.10;99.90
24682;DHT22;12802;53.390;-2.328;2023-03-26T20:01:27;8.10;99.90
24682;DHT22;12802;53.390;-2.328;2023-03-26T20:03:55;8.10;99.90
24682;DHT22;12802;53.390;-2.328;2023-03-26T20:06:22;8.10;99.90
24682;DHT22;12802;53.390;-2.328;2023-03-26T20:08:48;8.00;99.90
24682;DHT22;12802;53.390;-2.328;2023-03-26T20:11:35;8.00;99.90
24682;DHT22;12802;53.390;-2.328;2023-03-26T20:14:16;7.90;99.90
24682;DHT22;12802;53.390;-2.328;2023-03-26T20:16:42;7.80;99.90
24682;DHT22;12802;53.390;-2.328;2023-03-26T20:19:08;7.70;99.90
24682;DHT22;12802;53.390;-2.328;2023-03-26T20:21:35;7.70;99.90
24682;DHT22;12802;53.390;-2.328;2023-03-26T20:24:10;7.80;99.90
24682;DHT22;12802;53.390;-2.328;2023-03-26T20:26:36;7.90;99.90
24682;DHT22;12802;53.390;-2.328;2023-03-26T20:29:02;7.90;99.90
24682;DHT22;12802;53.390;-2.328;2023-03-26T20:31:28;7.90;99.90
24682;DHT22;12802;53.390;-2.328;2023-03-26T20:33:54;7.90;99.90
24682;DHT22;12802;53.390;-2.328;2023-03-26T20:36:21;7.90;99.90
24682;DHT22;12802;53.390;-2.328;2023-03-26T20:38:47;7.90;99.90
24682;DHT22;12802;53.390;-2.328;2023-03-26T20:41:18;7.80;99.90
24682;DHT22;12802;53.390;-2.328;2023-03-26T20:43:45;7.70;99.90
24682;DHT22;12802;53.390;-2.328;2023-03-26T20:46:15;7.70;99.90
24682;DHT22;12802;53.390;-2.328;2023-03-26T20:48:41;7.70;99.90
24682;DHT22;12802;53.390;-2.328;2023-03-26T20:51:09;7.80;99.90
24682;DHT22;12802;53.390;-2.328;2023-03-26T20:53:39;7.70;99.90
24682;DHT22;12802;53.390;-2.328;2023-03-26T20:56:17;7.60;99.90
24682;DHT22;12802;53.390;-2.328;2023-03-26T20:58:44;7.60;99.90
24682;DHT22;12802;53.390;-2.328;2023-03-26T21:01:13;7.60;99.90
24682;DHT22;12802;53.390;-2.328;2023-03-26T21:03:42;7.50;99.90
24682;DHT22;12802;53.390;-2.328;2023-03-26T21:06:11;7.50;99.90
24682;DHT22;12802;53.390;-2.328;2023-03-26T21:08:41;7.50;99.90
24682;DHT22;12802;53.390;-2.328;2023-03-26T21:14:13;7.70;99.90
24682;DHT22;12802;53.390;-2.328;2023-03-26T21:16:40;7.70;99.90
24682;DHT22;12802;53.390;-2.328;2023-03-26T21:19:08;7.60;99.90
24682;DHT22;12802;53.390;-2.328;2023-03-26T21:24:58;7.70;99.90
24682;DHT22;12802;53.390;-2.328;2023-03-26T21:27:52;7.70;99.90
24682;DHT22;12802;53.390;-2.328;2023-03-26T21:30:23;7.70;99.90
24682;DHT22;12802;53.390;-2.328;2023-03-26T21:32:49;7.60;99.90
24682;DHT22;12802;53.390;-2.328;2023-03-26T21:35:15;7.60;99.90
24682;DHT22;12802;53.390;-2.328;2023-03-26T21:37:43;7.60;99.90
24682;DHT22;12802;53.390;-2.328;2023-03-26T21:40:10;7.60;99.90
24682;DHT22;12802;53.390;-2.328;2023-03-26T21:42:48;7.60;99.90
24682;DHT22;12802;53.390;-2.328;2023-03-26T21:45:15;7.60;99.90
24682;DHT22;12802;53.390;-2.328;2023-03-26T21:47:42;7.50;99.90
24682;DHT22;12802;53.390;-2.328;2023-03-26T21:50:11;7.50;99.90
24682;DHT22;12802;53.390;-2.328;2023-03-26T21:52:38;7.50;99.90
24682;DHT22;12802;53.390;-2.328;2023-03-26T21:55:17;7.40;99.90
24682;DHT22;12802;53.390;-2.328;2023-03-26T22:04:01;7.40;99.90
24682;DHT22;12802;53.390;-2.328;2023-03-26T22:06:38;7.40;99.90
24682;DHT22;12802;53.390;-2.328;2023-03-26T22:09:12;7.40;99.90
24682;DHT22;12802;53.390;-2.328;2023-03-26T22:11:38;7.30;99.90
24682;DHT22;12802;53.390;-2.328;2023-03-26T22:14:05;7.30;99.90
24682;DHT22;12802;53.390;-2.328;2023-03-26T22:16:31;7.30;99.90
24682;DHT22;12802;53.390;-2.328;2023-03-26T22:18:58;7.20;99.90
24682;DHT22;12802;53.390;-2.328;2023-03-26T22:21:24;7.20;99.90
24682;DHT22;12802;53.390;-2.328;2023-03-26T22:23:51;7.10;99.90
24682;DHT22;12802;53.390;-2.328;2023-03-26T22:26:22;7.10;99.90
24682;DHT22;12802;53.390;-2.328;2023-03-26T22:28:49;7.10;99.90
24682;DHT22;12802;53.390;-2.328;2023-03-26T22:31:15;7.00;99.90